createdAt,value
2019-02-23T00:01:15.826Z,1.41
2019-02-23T00:03:45.520Z,1.53
2019-02-23T00:06:15.072Z,1.44
2019-02-23T00:08:44.765Z,1.42
2019-02-23T00:11:14.443Z,1.48
2019-02-23T00:13:44.085Z,1.54
2019-02-23T00:16:13.802Z,1.51
2019-02-23T00:18:43.442Z,1.39
2019-02-23T00:21:13.200Z,1.39
2019-02-23T00:23:42.861Z,1.53
2019-02-23T00:26:12.472Z,1.43
2019-02-23T00:28:42.081Z,1.32
2019-02-23T00:31:11.750Z,1.35
2019-02-23T00:33:41.400Z,1.35
2019-02-23T00:36:11.038Z,1.32
2019-02-23T00:38:40.654Z,1.46
2019-02-23T00:41:10.318Z,1.38
2019-02-23T00:43:40.118Z,1.36
2019-02-23T00:46:09.746Z,1.45
2019-02-23T00:48:39.348Z,1.18
2019-02-23T00:51:09.028Z,1.19
2019-02-23T00:53:38.635Z,1.43
2019-02-23T00:56:08.251Z,1.34
2019-02-23T00:58:37.878Z,1.26
2019-02-23T01:01:07.504Z,1.11
2019-02-23T01:03:37.158Z,0.99
2019-02-23T01:06:06.876Z,1.02
2019-02-23T01:08:36.490Z,0.90
2019-02-23T01:11:06.129Z,0.87
2019-02-23T01:13:35.901Z,0.81
2019-02-23T01:16:05.713Z,0.84
2019-02-23T01:18:35.314Z,0.84
2019-02-23T01:21:05.052Z,0.81
2019-02-23T01:23:34.673Z,0.91
2019-02-23T01:26:04.308Z,0.94
2019-02-23T01:28:33.922Z,1.10
2019-02-23T01:31:03.639Z,1.02
2019-02-23T01:33:33.278Z,0.92
2019-02-23T01:36:02.958Z,0.91
2019-02-23T01:38:35.651Z,0.75
2019-02-23T01:41:05.466Z,0.70
2019-02-23T01:43:35.130Z,0.59
2019-02-23T01:46:04.798Z,0.50
2019-02-23T01:48:34.448Z,0.41
2019-02-23T01:51:04.087Z,0.41
2019-02-23T01:53:33.726Z,0.40
2019-02-23T01:56:04.846Z,0.43
2019-02-23T01:58:34.518Z,0.56
2019-02-23T02:01:05.099Z,0.60
2019-02-23T02:03:34.906Z,0.59
2019-02-23T02:06:04.621Z,0.48
2019-02-23T02:08:34.741Z,0.44
2019-02-23T02:11:04.358Z,0.39
2019-02-23T02:13:34.023Z,0.38
2019-02-23T02:16:03.664Z,0.38
2019-02-23T02:18:33.450Z,0.47
2019-02-23T02:21:03.076Z,0.64
2019-02-23T02:23:32.708Z,0.54
2019-02-23T02:26:02.495Z,0.57
2019-02-23T02:28:36.894Z,0.61
2019-02-23T02:31:06.528Z,0.61
2019-02-23T02:33:55.505Z,0.68
2019-02-23T02:36:25.204Z,0.57
2019-02-23T02:38:54.919Z,0.59
2019-02-23T02:41:24.532Z,0.61
2019-02-23T02:43:54.289Z,0.57
2019-02-23T02:46:23.919Z,0.40
2019-02-23T02:48:53.578Z,0.51
2019-02-23T02:51:23.213Z,0.43
2019-02-23T02:53:52.870Z,0.38
2019-02-23T02:56:22.529Z,0.21
2019-02-23T02:58:52.166Z,0.10
2019-02-23T03:01:21.835Z,0.04
2019-02-23T03:03:51.500Z,-0.01
2019-02-23T03:06:21.125Z,0.02
2019-02-23T03:08:50.937Z,0.07
2019-02-23T03:11:20.710Z,0.01
2019-02-23T03:13:50.632Z,-0.05
2019-02-23T03:16:20.564Z,-0.18
2019-02-23T03:18:50.586Z,-0.23
2019-02-23T03:21:20.472Z,-0.24
2019-02-23T03:23:50.387Z,-0.27
2019-02-23T03:26:20.285Z,-0.18
2019-02-23T03:28:50.434Z,-0.20
2019-02-23T03:31:20.297Z,-0.22
2019-02-23T03:33:50.368Z,-0.28
2019-02-23T03:36:20.242Z,-0.34
2019-02-23T03:38:50.154Z,-0.39
2019-02-23T03:41:20.706Z,-0.09
2019-02-23T03:43:50.513Z,-0.15
2019-02-23T03:46:20.230Z,-0.13
2019-02-23T03:48:49.938Z,-0.06
2019-02-23T03:51:19.651Z,-0.11
2019-02-23T03:53:49.307Z,-0.12
2019-02-23T03:56:19.137Z,0.01
2019-02-23T03:58:49.750Z,-0.03
2019-02-23T04:01:19.398Z,-0.04
2019-02-23T04:03:49.088Z,0.00
2019-02-23T04:06:18.749Z,0.08
2019-02-23T04:08:48.382Z,0.30
2019-02-23T04:11:18.090Z,0.14
2019-02-23T04:13:47.801Z,0.14
2019-02-23T04:16:17.444Z,0.11
2019-02-23T04:18:47.121Z,0.07
2019-02-23T04:21:16.755Z,-0.07
2019-02-23T04:23:46.457Z,0.01
2019-02-23T04:26:16.216Z,-0.07
2019-02-23T04:28:45.829Z,-0.08
2019-02-23T04:31:15.503Z,-0.17
2019-02-23T04:33:45.126Z,-0.22
2019-02-23T04:36:14.756Z,-0.21
2019-02-23T04:38:44.390Z,-0.24
2019-02-23T04:41:14.046Z,-0.25
2019-02-23T04:43:44.274Z,-0.28
2019-02-23T04:46:13.968Z,-0.18
2019-02-23T04:48:43.608Z,-0.33
2019-02-23T04:51:14.768Z,-0.19
2019-02-23T04:53:44.838Z,-0.18
2019-02-23T04:56:14.535Z,-0.06
2019-02-23T04:58:44.152Z,-0.07
2019-02-23T05:01:13.824Z,-0.09
2019-02-23T05:03:43.481Z,-0.16
2019-02-23T05:06:13.213Z,-0.10
2019-02-23T05:08:42.859Z,-0.05
2019-02-23T05:11:12.564Z,-0.02
2019-02-23T05:13:42.190Z,0.00
2019-02-23T05:16:11.828Z,-0.03
2019-02-23T05:18:41.458Z,-0.12
2019-02-23T05:21:11.173Z,-0.13
2019-02-23T05:23:40.911Z,-0.05
2019-02-23T05:26:10.550Z,-0.09
2019-02-23T05:28:40.194Z,-0.04
2019-02-23T05:31:09.911Z,-0.13
2019-02-23T05:33:39.775Z,-0.21
2019-02-23T05:36:09.533Z,-0.25
2019-02-23T05:38:39.158Z,-0.37
2019-02-23T05:41:08.820Z,-0.37
2019-02-23T05:43:38.558Z,-0.29
2019-02-23T05:46:08.204Z,-0.08
2019-02-23T05:48:37.844Z,-0.19
2019-02-23T05:51:07.462Z,-0.14
2019-02-23T05:53:37.257Z,-0.16
2019-02-23T05:56:07.085Z,0.04
2019-02-23T05:58:36.814Z,0.01
2019-02-23T06:01:06.504Z,0.00
2019-02-23T06:03:36.324Z,-0.03
2019-02-23T06:06:06.201Z,-0.07
2019-02-23T06:08:35.880Z,-0.27
2019-02-23T06:11:05.905Z,-0.17
2019-02-23T06:13:35.714Z,0.09
2019-02-23T06:16:06.929Z,0.06
2019-02-23T06:18:36.685Z,-0.02
2019-02-23T06:21:06.376Z,-0.02
2019-02-23T06:23:36.086Z,0.05
2019-02-23T06:26:05.740Z,0.09
2019-02-23T06:28:35.469Z,0.16
2019-02-23T06:31:05.194Z,0.06
2019-02-23T06:33:34.867Z,0.08
2019-02-23T06:36:07.086Z,0.03
2019-02-23T06:38:35.956Z,0.10
2019-02-23T06:41:05.644Z,-0.01
2019-02-23T06:43:35.494Z,-0.01
2019-02-23T06:46:05.201Z,0.07
2019-02-23T06:48:35.143Z,0.12
2019-02-23T06:51:04.816Z,0.16
2019-02-23T06:53:34.521Z,0.25
2019-02-23T06:56:04.208Z,0.26
2019-02-23T06:58:33.943Z,0.42
2019-02-23T07:01:03.692Z,0.34
2019-02-23T07:03:33.427Z,0.34
2019-02-23T07:06:03.100Z,0.37
2019-02-23T07:08:32.858Z,0.43
2019-02-23T07:11:02.523Z,0.52
2019-02-23T07:13:32.218Z,0.52
2019-02-23T07:16:07.618Z,0.67
2019-02-23T07:18:37.326Z,0.76
2019-02-23T07:21:07.046Z,0.97
2019-02-23T07:23:36.769Z,1.01
2019-02-23T07:26:06.573Z,1.01
2019-02-23T07:28:36.284Z,0.99
2019-02-23T07:31:05.961Z,1.16
2019-02-23T07:33:35.733Z,1.16
2019-02-23T07:36:05.404Z,1.24
2019-02-23T07:38:35.613Z,1.28
2019-02-23T07:41:05.382Z,1.44
2019-02-23T07:43:35.079Z,1.43
2019-02-23T07:46:04.748Z,1.32
2019-02-23T07:48:34.492Z,1.43
2019-02-23T07:51:04.152Z,1.55
2019-02-23T07:53:33.822Z,1.61
2019-02-23T07:56:06.151Z,1.56
2019-02-23T07:58:35.044Z,1.72
2019-02-23T08:01:04.776Z,1.71
2019-02-23T08:03:34.486Z,1.67
2019-02-23T08:06:04.274Z,1.78
2019-02-23T08:08:33.934Z,1.63
2019-02-23T08:11:03.866Z,1.66
2019-02-23T08:13:33.637Z,1.75
2019-02-23T08:16:03.349Z,1.78
2019-02-23T08:18:34.696Z,1.97
2019-02-23T08:21:04.482Z,2.03
2019-02-23T08:23:34.300Z,2.12
2019-02-23T08:26:04.073Z,2.15
2019-02-23T08:28:33.739Z,2.30
2019-02-23T08:31:03.488Z,2.46
2019-02-23T08:33:33.243Z,2.52
2019-02-23T08:36:02.996Z,2.33
2019-02-23T08:38:32.995Z,2.46
2019-02-23T08:41:02.672Z,2.57
2019-02-23T08:43:32.456Z,2.55
2019-02-23T08:46:02.120Z,2.63
2019-02-23T08:48:48.400Z,2.64
2019-02-23T08:51:18.253Z,2.75
2019-02-23T08:53:47.994Z,2.97
2019-02-23T08:56:17.623Z,3.01
2019-02-23T08:58:47.373Z,3.16
2019-02-23T09:01:17.332Z,3.20
2019-02-23T09:03:49.671Z,3.22
2019-02-23T09:06:18.544Z,3.39
2019-02-23T09:08:48.159Z,3.45
2019-02-23T09:11:17.864Z,3.40
2019-02-23T09:13:47.678Z,3.32
2019-02-23T09:16:17.374Z,3.46
2019-02-23T09:18:46.994Z,3.42
2019-02-23T09:21:16.686Z,3.37
2019-02-23T09:23:46.672Z,3.27
2019-02-23T09:26:16.330Z,3.40
2019-02-23T09:28:46.228Z,3.42
2019-02-23T09:31:15.836Z,3.38
2019-02-23T09:33:45.476Z,3.44
2019-02-23T09:36:15.119Z,3.60
2019-02-23T09:38:44.723Z,3.53
2019-02-23T09:41:14.502Z,3.69
2019-02-23T09:43:44.148Z,3.69
2019-02-23T09:46:13.829Z,3.78
2019-02-23T09:48:43.478Z,3.80
2019-02-23T09:51:13.199Z,3.89
2019-02-23T09:53:42.817Z,4.00
2019-02-23T09:56:12.489Z,4.04
2019-02-23T09:58:42.108Z,4.24
2019-02-23T10:01:11.787Z,4.29
2019-02-23T10:03:41.634Z,4.24
2019-02-23T10:06:11.339Z,4.25
2019-02-23T10:08:41.035Z,4.45
2019-02-23T10:11:11.153Z,4.51
2019-02-23T10:13:47.015Z,4.63
2019-02-23T10:16:16.848Z,4.76
2019-02-23T10:18:46.532Z,4.92
2019-02-23T10:21:16.153Z,5.09
2019-02-23T10:23:45.792Z,5.16
2019-02-23T10:26:15.427Z,5.11
2019-02-23T10:28:45.050Z,5.27
2019-02-23T10:31:14.709Z,5.29
2019-02-23T10:33:47.581Z,5.26
2019-02-23T10:36:15.755Z,5.23
2019-02-23T10:38:45.405Z,5.26
2019-02-23T10:41:15.050Z,5.30
2019-02-23T10:43:44.730Z,5.32
2019-02-23T10:46:14.463Z,5.25
2019-02-23T10:48:44.102Z,5.46
2019-02-23T10:51:13.843Z,5.45
2019-02-23T10:53:43.456Z,5.38
2019-02-23T10:56:13.090Z,5.44
2019-02-23T10:58:42.781Z,5.27
2019-02-23T11:01:12.955Z,5.42
2019-02-23T11:03:43.048Z,5.51
2019-02-23T11:06:12.869Z,5.51
2019-02-23T11:08:42.485Z,5.59
2019-02-23T11:11:12.154Z,5.67
2019-02-23T11:13:41.901Z,5.68
2019-02-23T11:16:11.613Z,5.69
2019-02-23T11:18:41.245Z,5.79
2019-02-23T11:21:11.003Z,5.73
2019-02-23T11:23:44.128Z,5.84
2019-02-23T11:26:12.082Z,5.82
2019-02-23T11:28:41.819Z,5.76
2019-02-23T11:31:11.614Z,5.91
2019-02-23T11:33:42.338Z,5.91
2019-02-23T11:36:12.058Z,6.00
2019-02-23T11:38:41.902Z,5.86
2019-02-23T11:41:11.554Z,5.89
2019-02-23T11:43:41.193Z,5.92
2019-02-23T11:46:10.805Z,6.12
2019-02-23T11:48:40.459Z,6.19
2019-02-23T11:51:10.439Z,6.17
2019-02-23T11:53:40.113Z,6.17
2019-02-23T11:56:09.740Z,6.21
2019-02-23T11:58:39.462Z,6.15
2019-02-23T12:01:09.077Z,6.13
2019-02-23T12:03:38.822Z,6.34
2019-02-23T12:06:08.437Z,6.21
2019-02-23T12:08:38.062Z,6.25
2019-02-23T12:11:08.005Z,6.33
2019-02-23T12:13:37.754Z,6.49
2019-02-23T12:16:08.430Z,6.37
2019-02-23T12:18:38.231Z,6.17
2019-02-23T12:21:10.821Z,6.27
2019-02-23T12:23:46.663Z,6.09
2019-02-23T12:26:15.206Z,6.39
2019-02-23T12:28:44.844Z,6.37
2019-02-23T12:31:14.486Z,6.44
2019-02-23T12:33:44.155Z,6.58
2019-02-23T12:36:13.928Z,6.60
2019-02-23T12:38:43.710Z,6.79
2019-02-23T12:41:13.410Z,7.15
2019-02-23T12:43:43.195Z,7.11
2019-02-23T12:46:14.511Z,7.06
2019-02-23T12:48:44.175Z,6.82
2019-02-23T12:51:13.848Z,6.84
2019-02-23T12:53:44.900Z,6.86
2019-02-23T12:56:14.556Z,6.92
2019-02-23T12:58:48.748Z,6.88
2019-02-23T13:01:22.685Z,6.82
2019-02-23T13:03:52.375Z,7.01
2019-02-23T13:06:21.985Z,7.10
2019-02-23T13:09:16.893Z,7.14
2019-02-23T13:12:21.401Z,7.15
2019-02-23T13:14:59.830Z,7.24
2019-02-23T13:17:47.632Z,7.27
2019-02-23T13:20:29.337Z,7.17
2019-02-23T13:23:16.465Z,7.05
2019-02-23T13:25:51.862Z,7.14
2019-02-23T13:28:39.391Z,7.19
2019-02-23T13:31:39.355Z,7.03
2019-02-23T13:34:20.897Z,7.10
2019-02-23T13:37:05.152Z,6.92
2019-02-23T13:39:55.935Z,7.02
2019-02-23T13:42:55.961Z,6.93
2019-02-23T13:45:44.137Z,6.86
2019-02-23T13:48:21.220Z,6.88
2019-02-23T13:51:04.184Z,6.90
2019-02-23T13:53:42.374Z,6.76
2019-02-23T13:56:33.235Z,6.92
2019-02-23T13:59:24.000Z,6.96
2019-02-23T14:02:14.798Z,6.99
2019-02-23T14:04:50.155Z,6.97
2019-02-23T14:07:22.989Z,7.09
2019-02-23T14:10:01.468Z,6.93
2019-02-23T14:12:40.131Z,7.05
2019-02-23T14:15:30.160Z,7.07
2019-02-23T14:18:11.959Z,6.94
2019-02-23T14:20:56.669Z,6.96
2019-02-23T14:23:35.363Z,7.09
2019-02-23T14:26:20.349Z,7.09
2019-02-23T14:28:58.651Z,7.18
2019-02-23T14:31:41.552Z,7.05
2019-02-23T14:34:47.776Z,7.07
2019-02-23T14:37:23.262Z,7.09
2019-02-23T14:40:27.873Z,7.13
2019-02-23T14:43:17.322Z,7.21
2019-02-23T14:46:01.803Z,7.02
2019-02-23T14:48:58.166Z,7.08
2019-02-23T14:51:47.209Z,7.11
2019-02-23T14:54:28.901Z,6.95
2019-02-23T14:57:01.618Z,6.97
2019-02-23T14:59:37.075Z,6.97
2019-02-23T15:02:32.428Z,7.04
2019-02-23T15:05:23.486Z,7.00
2019-02-23T15:08:11.140Z,6.94
2019-02-23T15:10:55.907Z,6.89
2019-02-23T15:13:40.568Z,6.94
2019-02-23T15:16:36.030Z,7.03
2019-02-23T15:19:11.750Z,7.00
2019-02-23T15:22:04.000Z,7.06
2019-02-23T15:24:42.418Z,7.06
2019-02-23T15:27:29.553Z,7.17
2019-02-23T15:30:17.300Z,7.19
2019-02-23T15:33:07.884Z,6.98
2019-02-23T15:35:52.203Z,6.81
2019-02-23T15:38:26.723Z,6.78
2019-02-23T15:41:14.464Z,6.67
2019-02-23T15:43:53.092Z,6.75
2019-02-23T15:46:37.377Z,6.68
2019-02-23T15:49:13.034Z,6.68
2019-02-23T15:51:42.649Z,6.52
2019-02-23T15:54:12.506Z,6.50
2019-02-23T15:56:42.192Z,6.49
2019-02-23T15:59:11.827Z,6.44
2019-02-23T16:01:41.745Z,6.44
2019-02-23T16:04:11.486Z,6.61
2019-02-23T16:06:41.114Z,6.44
2019-02-23T16:09:10.783Z,6.49
2019-02-23T16:11:40.580Z,6.30
2019-02-23T16:14:10.235Z,6.34
2019-02-23T16:16:39.861Z,6.35
2019-02-23T16:19:09.521Z,6.22
2019-02-23T16:21:39.105Z,6.13
2019-02-23T16:24:08.866Z,6.05
2019-02-23T16:26:38.677Z,5.86
2019-02-23T16:29:08.457Z,5.90
2019-02-23T16:32:11.491Z,5.83
2019-02-23T16:34:41.464Z,5.74
2019-02-23T16:37:11.135Z,5.57
2019-02-23T16:39:40.758Z,5.66
2019-02-23T16:42:10.368Z,5.55
2019-02-23T16:44:40.189Z,5.60
2019-02-23T16:47:09.824Z,5.46
2019-02-23T16:49:39.511Z,5.26
2019-02-23T16:52:09.862Z,5.18
2019-02-23T16:54:39.502Z,5.22
2019-02-23T16:57:09.170Z,5.12
2019-02-23T16:59:38.899Z,4.95
2019-02-23T17:02:08.575Z,4.88
2019-02-23T17:04:38.173Z,4.92
2019-02-23T17:07:08.216Z,4.78
2019-02-23T17:09:38.210Z,4.70
2019-02-23T17:12:08.383Z,4.63
2019-02-23T17:14:38.427Z,4.54
2019-02-23T17:17:13.016Z,4.57
2019-02-23T17:19:43.095Z,4.47
2019-02-23T17:22:12.853Z,4.45
2019-02-23T17:24:42.466Z,4.39
2019-02-23T17:27:12.098Z,4.38
2019-02-23T17:29:41.703Z,4.40
2019-02-23T17:32:13.636Z,4.45
2019-02-23T17:34:43.753Z,4.46
2019-02-23T17:37:13.525Z,4.55
2019-02-23T17:39:43.138Z,4.53
2019-02-23T17:42:12.861Z,4.43
2019-02-23T17:44:42.639Z,4.33
2019-02-23T17:47:12.288Z,4.22
2019-02-23T17:49:41.923Z,4.10
2019-02-23T17:52:11.560Z,4.01
2019-02-23T17:54:41.251Z,3.88
2019-02-23T17:57:10.908Z,3.80
2019-02-23T17:59:40.621Z,3.70
2019-02-23T18:02:10.359Z,3.63
2019-02-23T18:04:40.068Z,3.50
2019-02-23T18:07:09.719Z,3.42
2019-02-23T18:09:39.410Z,3.35
2019-02-23T18:12:09.090Z,3.32
2019-02-23T18:14:38.733Z,3.22
2019-02-23T18:17:09.321Z,3.17
2019-02-23T18:19:38.938Z,3.13
2019-02-23T18:22:08.594Z,3.07
2019-02-23T18:24:38.212Z,3.00
2019-02-23T18:27:08.561Z,2.97
2019-02-23T18:29:38.374Z,2.94
2019-02-23T18:32:08.093Z,2.90
2019-02-23T18:34:37.700Z,2.83
2019-02-23T18:37:07.318Z,2.77
2019-02-23T18:39:36.958Z,2.76
2019-02-23T18:42:06.586Z,2.75
2019-02-23T18:44:36.243Z,2.70
2019-02-23T18:47:05.998Z,2.66
2019-02-23T18:49:35.662Z,2.62
2019-02-23T18:52:05.290Z,2.55
2019-02-23T18:54:46.293Z,2.52
2019-02-23T18:57:16.420Z,2.61
2019-02-23T18:59:48.602Z,2.78
2019-02-23T19:02:18.321Z,2.89
2019-02-23T19:04:48.029Z,2.83
2019-02-23T19:07:19.365Z,2.74
2019-02-23T19:09:49.081Z,2.65
2019-02-23T19:12:18.700Z,2.55
2019-02-23T19:14:48.392Z,2.51
2019-02-23T19:17:18.255Z,2.38
2019-02-23T19:19:48.211Z,2.51
2019-02-23T19:22:17.806Z,2.58
2019-02-23T19:24:47.459Z,2.70
2019-02-23T19:27:20.155Z,2.99
2019-02-23T19:29:50.160Z,3.06
2019-02-23T19:32:20.071Z,3.24
2019-02-23T19:34:50.064Z,3.34
2019-02-23T19:37:19.680Z,3.42
2019-02-23T19:39:49.369Z,3.45
2019-02-23T19:42:19.088Z,3.55
2019-02-23T19:44:48.961Z,3.62
2019-02-23T19:47:18.640Z,3.73
2019-02-23T19:49:49.338Z,3.75
2019-02-23T19:52:19.114Z,3.62
2019-02-23T19:54:49.069Z,3.71
2019-02-23T19:57:18.681Z,3.58
2019-02-23T19:59:48.594Z,3.55
2019-02-23T20:02:18.170Z,3.60
2019-02-23T20:04:47.956Z,3.67
2019-02-23T20:07:17.626Z,3.51
2019-02-23T20:09:47.251Z,3.40
2019-02-23T20:12:16.959Z,3.45
2019-02-23T20:14:46.627Z,3.41
2019-02-23T20:17:16.254Z,3.48
2019-02-23T20:19:47.171Z,3.47
2019-02-23T20:22:17.666Z,3.49
2019-02-23T20:24:47.357Z,3.50
2019-02-23T20:27:16.970Z,3.48
2019-02-23T20:29:47.728Z,3.30
2019-02-23T20:32:17.424Z,3.34
2019-02-23T20:34:47.411Z,3.31
2019-02-23T20:37:17.020Z,3.31
2019-02-23T20:39:46.666Z,3.47
2019-02-23T20:42:16.369Z,3.43
2019-02-23T20:44:46.055Z,3.50
2019-02-23T20:47:17.255Z,3.27
2019-02-23T20:49:47.143Z,3.20
2019-02-23T20:52:16.828Z,3.46
2019-02-23T20:54:46.628Z,3.28
2019-02-23T20:57:16.501Z,3.22
2019-02-23T20:59:47.991Z,3.30
2019-02-23T21:02:17.822Z,3.40
2019-02-23T21:04:47.467Z,3.18
2019-02-23T21:07:17.091Z,3.18
2019-02-23T21:09:46.737Z,3.15
2019-02-23T21:12:16.440Z,3.28
2019-02-23T21:14:46.163Z,3.14
2019-02-23T21:17:16.042Z,3.20
2019-02-23T21:19:45.869Z,3.18
2019-02-23T21:22:15.561Z,3.28
2019-02-23T21:24:45.318Z,3.24
2019-02-23T21:27:15.549Z,3.17
2019-02-23T21:29:45.307Z,3.18
2019-02-23T21:32:15.595Z,3.25
2019-02-23T21:34:45.339Z,3.23
2019-02-23T21:37:15.213Z,3.17
2019-02-23T21:39:44.878Z,3.28
2019-02-23T21:42:14.733Z,3.21
2019-02-23T21:44:44.418Z,3.12
2019-02-23T21:47:14.111Z,3.12
2019-02-23T21:49:44.145Z,3.02
2019-02-23T21:52:14.044Z,3.11
2019-02-23T21:54:43.737Z,3.05
2019-02-23T21:57:21.811Z,2.94
2019-02-23T21:59:45.024Z,2.80
2019-02-23T22:02:14.891Z,2.78
2019-02-23T22:04:44.651Z,2.65
2019-02-23T22:07:14.409Z,2.54
2019-02-23T22:09:44.127Z,2.43
2019-02-23T22:12:13.876Z,2.35
2019-02-23T22:14:43.662Z,2.29
2019-02-23T22:17:13.593Z,2.18
2019-02-23T22:19:43.335Z,2.13
2019-02-23T22:22:13.353Z,2.06
2019-02-23T22:24:43.164Z,2.03
2019-02-23T22:27:12.917Z,1.98
2019-02-23T22:29:42.733Z,1.92
2019-02-23T22:32:12.489Z,1.90
2019-02-23T22:34:42.556Z,1.79
2019-02-23T22:37:12.185Z,1.72
2019-02-23T22:39:41.911Z,1.60
2019-02-23T22:42:11.678Z,1.52
2019-02-23T22:44:41.393Z,1.46
2019-02-23T22:47:11.072Z,1.18
2019-02-23T22:49:40.896Z,1.21
2019-02-23T22:52:10.610Z,1.18
2019-02-23T22:54:40.475Z,1.26
2019-02-23T22:57:10.234Z,1.21
2019-02-23T22:59:40.006Z,1.06
2019-02-23T23:02:09.699Z,0.99
2019-02-23T23:04:39.453Z,0.96
2019-02-23T23:07:09.194Z,0.93
2019-02-23T23:09:38.952Z,0.72
2019-02-23T23:12:08.643Z,0.65
2019-02-23T23:14:38.366Z,0.77
2019-02-23T23:17:08.025Z,0.67
2019-02-23T23:19:37.735Z,0.66
2019-02-23T23:22:07.425Z,0.65
2019-02-23T23:24:37.192Z,0.58
2019-02-23T23:27:06.960Z,0.51
2019-02-23T23:29:36.627Z,0.50
2019-02-23T23:32:06.300Z,0.49
2019-02-23T23:34:36.017Z,0.46
2019-02-23T23:37:05.782Z,0.30
2019-02-23T23:39:35.477Z,0.29
2019-02-23T23:42:05.233Z,0.32
2019-02-23T23:44:34.974Z,0.35
2019-02-23T23:47:04.647Z,0.26
2019-02-23T23:49:34.368Z,0.18
2019-02-23T23:52:04.129Z,0.18
2019-02-23T23:54:33.836Z,0.25
2019-02-23T23:57:03.626Z,0.28
2019-02-23T23:59:33.349Z,0.28
